createdAt,value
2018-12-16T00:02:21.684Z,-1.20
2018-12-16T00:04:50.238Z,-1.20
2018-12-16T00:07:18.870Z,-1.20
2018-12-16T00:09:47.283Z,-1.20
2018-12-16T00:12:15.802Z,-1.20
2018-12-16T00:14:44.210Z,-1.20
2018-12-16T00:17:12.746Z,-1.10
2018-12-16T00:19:41.278Z,-1.20
2018-12-16T00:22:09.828Z,-1.20
2018-12-16T00:24:38.281Z,-1.20
2018-12-16T00:27:10.913Z,-1.20
2018-12-16T00:29:39.741Z,-1.20
2018-12-16T00:32:08.289Z,-1.20
2018-12-16T00:34:36.750Z,-1.10
2018-12-16T00:37:05.184Z,-1.00
2018-12-16T00:39:33.748Z,-1.00
2018-12-16T00:42:02.273Z,-0.90
2018-12-16T00:44:30.732Z,-0.90
2018-12-16T00:46:59.181Z,-0.80
2018-12-16T00:49:27.717Z,-0.80
2018-12-16T00:51:56.245Z,-0.70
2018-12-16T00:54:24.685Z,-0.70
2018-12-16T00:56:53.216Z,-0.60
2018-12-16T00:59:21.617Z,-0.60
2018-12-16T01:01:50.114Z,-0.50
2018-12-16T01:04:18.536Z,-0.40
2018-12-16T01:06:47.689Z,-0.40
2018-12-16T01:09:16.692Z,-0.40
2018-12-16T01:11:45.126Z,-0.40
2018-12-16T01:14:13.951Z,-0.40
2018-12-16T01:16:42.376Z,-0.40
2018-12-16T01:19:10.813Z,-0.30
2018-12-16T01:21:39.278Z,-0.30
2018-12-16T01:24:07.718Z,-0.20
2018-12-16T01:26:36.127Z,-0.20
2018-12-16T01:29:04.672Z,-0.20
2018-12-16T01:31:33.347Z,-0.20
2018-12-16T01:34:01.757Z,-0.20
2018-12-16T01:36:30.225Z,-0.20
2018-12-16T01:38:58.653Z,-0.20
2018-12-16T01:41:27.546Z,-0.20
2018-12-16T01:43:56.454Z,-0.20
2018-12-16T01:46:24.860Z,-0.20
2018-12-16T01:48:53.352Z,-0.20
2018-12-16T01:51:21.877Z,-0.20
2018-12-16T01:53:50.431Z,-0.20
2018-12-16T01:56:18.945Z,-0.10
2018-12-16T01:58:47.403Z,-0.10
2018-12-16T02:01:15.898Z,0.00
2018-12-16T02:03:44.321Z,0.00
2018-12-16T02:06:12.748Z,0.00
2018-12-16T02:08:41.225Z,0.00
2018-12-16T02:11:10.026Z,0.00
2018-12-16T02:13:38.477Z,0.00
2018-12-16T02:16:06.903Z,0.10
2018-12-16T02:18:35.413Z,0.10
2018-12-16T02:21:03.814Z,0.10
2018-12-16T02:23:32.243Z,0.10
2018-12-16T02:26:00.670Z,0.10
2018-12-16T02:28:29.085Z,0.10
2018-12-16T02:30:57.488Z,0.20
2018-12-16T02:33:25.937Z,0.20
2018-12-16T02:35:54.364Z,0.10
2018-12-16T02:38:22.799Z,0.10
2018-12-16T02:40:51.234Z,0.20
2018-12-16T02:43:19.666Z,0.20
2018-12-16T02:45:48.073Z,0.20
2018-12-16T02:48:16.472Z,0.20
2018-12-16T02:50:45.004Z,0.30
2018-12-16T02:53:13.415Z,0.30
2018-12-16T02:55:41.865Z,0.30
2018-12-16T02:58:10.281Z,0.30
2018-12-16T03:00:38.853Z,0.30
2018-12-16T03:03:07.267Z,0.30
2018-12-16T03:05:35.685Z,0.30
2018-12-16T03:08:04.341Z,0.30
2018-12-16T03:10:32.769Z,0.30
2018-12-16T03:13:01.178Z,0.30
2018-12-16T03:15:29.633Z,0.30
2018-12-16T03:17:58.043Z,0.30
2018-12-16T03:20:26.469Z,0.30
2018-12-16T03:22:55.837Z,0.30
2018-12-16T03:25:24.272Z,0.40
2018-12-16T03:27:52.740Z,0.40
2018-12-16T03:30:23.337Z,0.40
2018-12-16T03:32:51.694Z,0.30
2018-12-16T03:35:20.103Z,0.40
2018-12-16T03:37:48.664Z,0.40
2018-12-16T03:40:17.659Z,0.40
2018-12-16T03:42:46.100Z,0.40
2018-12-16T03:45:14.496Z,0.40
2018-12-16T03:47:43.033Z,0.40
2018-12-16T03:50:11.563Z,0.40
2018-12-16T03:52:39.990Z,0.40
2018-12-16T03:55:08.674Z,0.40
2018-12-16T03:57:37.162Z,0.40
2018-12-16T04:00:06.497Z,0.40
2018-12-16T04:02:35.035Z,0.40
2018-12-16T04:05:04.129Z,0.40
2018-12-16T04:07:32.976Z,0.40
2018-12-16T04:10:01.433Z,0.40
2018-12-16T04:12:29.909Z,0.40
2018-12-16T04:14:58.867Z,0.40
2018-12-16T04:17:27.320Z,0.40
2018-12-16T04:19:55.849Z,0.40
2018-12-16T04:22:24.934Z,0.40
2018-12-16T04:24:53.340Z,0.40
2018-12-16T04:27:21.769Z,0.40
2018-12-16T04:29:50.274Z,0.40
2018-12-16T04:32:18.704Z,0.40
2018-12-16T04:34:47.585Z,0.40
2018-12-16T04:37:16.002Z,0.40
2018-12-16T04:39:44.781Z,0.50
2018-12-16T04:42:13.252Z,0.50
2018-12-16T04:44:41.664Z,0.50
2018-12-16T04:47:10.129Z,0.50
2018-12-16T04:49:38.574Z,0.50
2018-12-16T04:52:06.989Z,0.50
2018-12-16T04:54:35.408Z,0.40
2018-12-16T04:57:03.815Z,0.40
2018-12-16T04:59:32.244Z,0.40
2018-12-16T05:02:00.691Z,0.40
2018-12-16T05:04:29.184Z,0.50
2018-12-16T05:06:57.702Z,0.40
2018-12-16T05:09:26.189Z,0.40
2018-12-16T05:11:54.582Z,0.50
2018-12-16T05:14:23.004Z,0.50
2018-12-16T05:16:51.408Z,0.50
2018-12-16T05:19:19.794Z,0.50
2018-12-16T05:21:48.222Z,0.50
2018-12-16T05:24:16.613Z,0.50
2018-12-16T05:26:45.169Z,0.50
2018-12-16T05:29:14.197Z,0.50
2018-12-16T05:31:42.624Z,0.50
2018-12-16T05:34:11.063Z,0.50
2018-12-16T05:36:39.488Z,0.60
2018-12-16T05:39:07.942Z,0.60
2018-12-16T05:41:36.397Z,0.60
2018-12-16T05:44:04.914Z,0.50
2018-12-16T05:46:33.325Z,0.60
2018-12-16T05:49:01.724Z,0.60
2018-12-16T05:51:30.123Z,0.60
2018-12-16T05:53:58.538Z,0.60
2018-12-16T05:56:26.937Z,0.60
2018-12-16T05:58:55.351Z,0.60
2018-12-16T06:01:30.973Z,0.60
2018-12-16T06:03:59.731Z,0.60
2018-12-16T06:06:28.133Z,0.60
2018-12-16T06:08:56.568Z,0.50
2018-12-16T06:11:25.013Z,0.60
2018-12-16T06:13:53.420Z,0.60
2018-12-16T06:16:21.927Z,0.60
2018-12-16T06:18:50.342Z,0.50
2018-12-16T06:21:18.784Z,0.50
2018-12-16T06:23:47.309Z,0.60
2018-12-16T06:26:16.045Z,0.60
2018-12-16T06:28:44.495Z,0.60
2018-12-16T06:31:13.644Z,0.50
2018-12-16T06:33:42.068Z,0.50
2018-12-16T06:36:10.478Z,0.50
2018-12-16T06:38:38.932Z,0.50
2018-12-16T06:41:07.378Z,0.50
2018-12-16T06:43:35.955Z,0.50
2018-12-16T06:46:04.493Z,0.50
2018-12-16T06:48:32.941Z,0.50
2018-12-16T06:51:01.427Z,0.50
2018-12-16T06:53:29.826Z,0.50
2018-12-16T06:55:58.223Z,0.50
2018-12-16T06:58:26.650Z,0.50
2018-12-16T07:00:55.224Z,0.50
2018-12-16T07:03:23.625Z,0.50
2018-12-16T07:05:52.059Z,0.50
2018-12-16T07:08:20.457Z,0.50
2018-12-16T07:10:48.890Z,0.50
2018-12-16T07:13:17.345Z,0.50
2018-12-16T07:15:45.794Z,0.50
2018-12-16T07:18:14.314Z,0.50
2018-12-16T07:20:42.792Z,0.60
2018-12-16T07:23:11.202Z,0.50
2018-12-16T07:25:39.744Z,0.50
2018-12-16T07:28:08.187Z,0.50
2018-12-16T07:30:36.641Z,0.50
2018-12-16T07:33:05.132Z,0.50
2018-12-16T07:35:33.563Z,0.50
2018-12-16T07:38:01.993Z,0.50
2018-12-16T07:40:30.496Z,0.50
2018-12-16T07:42:58.968Z,0.50
2018-12-16T07:45:27.379Z,0.50
2018-12-16T07:47:55.958Z,0.50
2018-12-16T07:50:24.455Z,0.50
2018-12-16T07:52:53.023Z,0.50
2018-12-16T07:55:21.538Z,0.50
2018-12-16T07:57:50.095Z,0.50
2018-12-16T08:00:18.563Z,0.50
2018-12-16T08:02:47.087Z,0.60
2018-12-16T08:05:15.537Z,0.60
2018-12-16T08:07:43.966Z,0.60
2018-12-16T08:10:12.422Z,0.60
2018-12-16T08:12:40.854Z,0.60
2018-12-16T08:15:09.413Z,0.60
2018-12-16T08:17:37.822Z,0.60
2018-12-16T08:20:08.014Z,0.60
2018-12-16T08:22:36.449Z,0.60
2018-12-16T08:25:05.834Z,0.60
2018-12-16T08:27:34.241Z,0.60
2018-12-16T08:30:03.316Z,0.60
2018-12-16T08:32:31.758Z,0.60
2018-12-16T08:35:00.340Z,0.60
2018-12-16T08:37:28.819Z,0.60
2018-12-16T08:39:57.253Z,0.60
2018-12-16T08:42:25.720Z,0.60
2018-12-16T08:44:55.067Z,0.60
2018-12-16T08:47:23.602Z,0.60
2018-12-16T08:49:52.052Z,0.60
2018-12-16T08:52:20.569Z,0.60
2018-12-16T08:54:49.073Z,0.60
2018-12-16T08:57:17.584Z,0.60
2018-12-16T08:59:46.484Z,0.60
2018-12-16T09:02:15.593Z,0.70
2018-12-16T09:04:44.039Z,0.70
2018-12-16T09:07:12.495Z,0.70
2018-12-16T09:09:41.351Z,0.60
2018-12-16T09:12:09.901Z,0.70
2018-12-16T09:14:38.359Z,0.70
2018-12-16T09:17:07.485Z,0.70
2018-12-16T09:19:35.900Z,0.70
2018-12-16T09:22:05.524Z,0.80
2018-12-16T09:24:37.287Z,0.70
2018-12-16T09:27:04.533Z,0.70
2018-12-16T09:29:33.033Z,0.80
2018-12-16T09:32:02.808Z,0.80
2018-12-16T09:34:31.958Z,0.80
2018-12-16T09:37:00.385Z,0.80
2018-12-16T09:39:28.976Z,0.80
2018-12-16T09:41:57.438Z,0.80
2018-12-16T09:44:25.943Z,0.80
2018-12-16T09:46:54.409Z,0.80
2018-12-16T09:49:22.963Z,0.90
2018-12-16T09:51:51.479Z,0.90
2018-12-16T09:54:20.162Z,0.90
2018-12-16T09:56:49.206Z,1.00
2018-12-16T09:59:19.440Z,1.00
2018-12-16T10:01:47.978Z,1.00
2018-12-16T10:04:16.539Z,1.00
2018-12-16T10:06:44.979Z,1.10
2018-12-16T10:09:14.307Z,1.20
2018-12-16T10:11:43.347Z,1.30
2018-12-16T10:14:11.809Z,1.40
2018-12-16T10:16:40.803Z,1.40
2018-12-16T10:19:09.237Z,1.40
2018-12-16T10:21:37.910Z,1.40
2018-12-16T10:24:06.441Z,1.50
2018-12-16T10:26:35.080Z,1.50
2018-12-16T10:29:03.562Z,1.50
2018-12-16T10:31:32.568Z,1.50
2018-12-16T10:34:01.142Z,1.50
2018-12-16T10:36:29.561Z,1.40
2018-12-16T10:38:58.232Z,1.30
2018-12-16T10:41:27.145Z,1.30
2018-12-16T10:43:55.668Z,1.30
2018-12-16T10:46:24.114Z,1.30
2018-12-16T10:48:52.669Z,1.30
2018-12-16T10:51:21.421Z,1.20
2018-12-16T10:53:50.047Z,1.30
2018-12-16T10:56:18.465Z,1.30
2018-12-16T10:58:46.925Z,1.30
2018-12-16T11:01:20.684Z,1.40
2018-12-16T11:03:49.131Z,1.50
2018-12-16T11:06:17.568Z,1.60
2018-12-16T11:08:46.646Z,1.50
2018-12-16T11:11:15.178Z,1.50
2018-12-16T11:13:44.238Z,1.60
2018-12-16T11:16:12.657Z,1.70
2018-12-16T11:18:41.135Z,1.90
2018-12-16T11:21:09.596Z,2.00
2018-12-16T11:23:38.045Z,2.00
2018-12-16T11:26:07.020Z,2.00
2018-12-16T11:28:35.462Z,1.90
2018-12-16T11:31:04.341Z,2.00
2018-12-16T11:33:32.979Z,1.90
2018-12-16T11:36:01.391Z,1.90
2018-12-16T11:38:29.808Z,1.80
2018-12-16T11:40:58.268Z,1.80
2018-12-16T11:43:26.712Z,1.70
2018-12-16T11:45:55.185Z,1.60
2018-12-16T11:48:23.730Z,1.50
2018-12-16T11:50:52.829Z,1.50
2018-12-16T11:53:21.850Z,1.50
2018-12-16T11:55:51.004Z,1.60
2018-12-16T11:58:19.419Z,1.60
2018-12-16T12:00:48.014Z,1.50
2018-12-16T12:03:16.424Z,1.50
2018-12-16T12:05:46.682Z,1.50
2018-12-16T12:08:15.139Z,1.60
2018-12-16T12:10:44.220Z,1.60
2018-12-16T12:13:12.604Z,1.60
2018-12-16T12:15:41.095Z,1.60
2018-12-16T12:18:09.689Z,1.60
2018-12-16T12:20:38.275Z,1.50
2018-12-16T12:23:06.850Z,1.50
2018-12-16T12:25:35.825Z,1.40
2018-12-16T12:28:05.212Z,1.40
2018-12-16T12:30:33.651Z,1.40
2018-12-16T12:33:02.078Z,1.40
2018-12-16T12:35:30.630Z,1.40
2018-12-16T12:37:59.141Z,1.30
2018-12-16T12:40:27.607Z,1.40
2018-12-16T12:42:56.173Z,1.30
2018-12-16T12:45:31.283Z,1.30
2018-12-16T12:47:59.792Z,1.30
2018-12-16T12:50:28.203Z,1.30
2018-12-16T12:52:57.075Z,1.30
2018-12-16T12:55:26.913Z,1.30
2018-12-16T12:57:56.219Z,1.30
2018-12-16T13:00:25.728Z,1.30
2018-12-16T13:02:54.366Z,1.20
2018-12-16T13:05:22.800Z,1.20
2018-12-16T13:07:51.230Z,1.30
2018-12-16T13:10:20.732Z,1.30
2018-12-16T13:12:49.235Z,1.30
2018-12-16T13:15:17.748Z,1.30
2018-12-16T13:17:46.266Z,1.30
2018-12-16T13:20:15.319Z,1.30
2018-12-16T13:22:43.771Z,1.30
2018-12-16T13:26:23.695Z,1.30
2018-12-16T13:28:52.313Z,1.30
2018-12-16T13:31:20.798Z,1.30
2018-12-16T13:33:49.242Z,1.30
2018-12-16T13:36:17.880Z,1.30
2018-12-16T13:38:46.308Z,1.30
2018-12-16T13:41:14.808Z,1.30
2018-12-16T13:43:44.288Z,1.30
2018-12-16T13:46:13.328Z,1.30
2018-12-16T13:48:41.765Z,1.30
2018-12-16T13:51:10.225Z,1.30
2018-12-16T13:53:38.732Z,1.30
2018-12-16T13:56:09.318Z,1.30
2018-12-16T13:58:37.883Z,1.30
2018-12-16T14:01:06.444Z,1.30
2018-12-16T14:03:34.996Z,1.30
2018-12-16T14:06:03.439Z,1.30
2018-12-16T14:08:31.946Z,1.30
2018-12-16T14:11:01.253Z,1.30
2018-12-16T14:13:29.684Z,1.30
2018-12-16T14:15:58.466Z,1.30
2018-12-16T14:18:26.950Z,1.30
2018-12-16T14:20:55.444Z,1.30
2018-12-16T14:23:23.916Z,1.30
2018-12-16T14:25:52.403Z,1.30
2018-12-16T14:28:21.490Z,1.20
2018-12-16T14:30:49.948Z,1.20
2018-12-16T14:33:18.447Z,1.20
2018-12-16T14:35:47.019Z,1.20
2018-12-16T14:38:16.042Z,1.20
2018-12-16T14:40:44.540Z,1.20
2018-12-16T14:43:13.338Z,1.20
2018-12-16T14:45:41.864Z,1.20
2018-12-16T14:48:10.561Z,1.20
2018-12-16T14:50:39.794Z,1.20
2018-12-16T14:53:09.366Z,1.20
2018-12-16T14:55:37.954Z,1.20
2018-12-16T14:58:06.389Z,1.10
2018-12-16T15:00:35.015Z,1.20
2018-12-16T15:03:03.524Z,1.10
2018-12-16T15:05:32.810Z,1.10
2018-12-16T15:08:01.363Z,1.10
2018-12-16T15:10:29.965Z,1.10
2018-12-16T15:13:00.737Z,1.10
2018-12-16T15:15:31.008Z,1.10
2018-12-16T15:18:00.566Z,1.10
2018-12-16T15:20:29.110Z,1.10
2018-12-16T15:22:58.486Z,1.20
2018-12-16T15:25:27.767Z,1.10
2018-12-16T15:27:56.517Z,1.10
2018-12-16T15:30:25.060Z,1.10
2018-12-16T15:32:54.150Z,1.10
2018-12-16T15:35:22.593Z,1.10
2018-12-16T15:37:51.312Z,1.10
2018-12-16T15:40:19.897Z,1.10
2018-12-16T15:42:48.432Z,1.10
2018-12-16T15:45:16.987Z,1.10
2018-12-16T15:47:45.423Z,1.10
2018-12-16T15:50:14.582Z,1.10
2018-12-16T15:52:44.165Z,1.10
2018-12-16T15:55:12.723Z,1.10
2018-12-16T15:57:41.205Z,1.10
2018-12-16T16:00:09.910Z,1.10
2018-12-16T16:02:38.579Z,1.10
2018-12-16T16:05:07.536Z,1.10
2018-12-16T16:07:36.184Z,1.10
2018-12-16T16:10:07.031Z,1.10
2018-12-16T16:12:35.498Z,1.20
2018-12-16T16:15:04.259Z,1.20
2018-12-16T16:17:33.190Z,1.10
2018-12-16T16:20:01.759Z,1.10
2018-12-16T16:22:30.601Z,1.10
2018-12-16T16:24:59.101Z,1.10
2018-12-16T16:27:27.553Z,1.10
2018-12-16T16:29:55.965Z,1.10
2018-12-16T16:32:24.516Z,1.20
2018-12-16T16:34:53.091Z,1.10
2018-12-16T16:37:21.541Z,1.10
2018-12-16T16:39:50.099Z,1.10
2018-12-16T16:42:18.556Z,1.10
2018-12-16T16:44:47.023Z,1.10
2018-12-16T16:47:15.626Z,1.10
2018-12-16T16:49:44.124Z,1.10
2018-12-16T16:52:12.710Z,1.10
2018-12-16T16:54:41.158Z,1.10
2018-12-16T16:57:09.773Z,1.10
2018-12-16T16:59:38.233Z,1.10
2018-12-16T17:02:06.715Z,1.10
2018-12-16T17:04:35.444Z,1.10
2018-12-16T17:07:03.937Z,1.10
2018-12-16T17:09:32.532Z,1.10
2018-12-16T17:12:01.514Z,1.10
2018-12-16T17:14:30.133Z,1.10
2018-12-16T17:16:58.699Z,1.10
2018-12-16T17:19:27.437Z,1.10
2018-12-16T17:21:56.201Z,1.00
2018-12-16T17:24:24.642Z,1.00
2018-12-16T17:26:53.087Z,1.00
2018-12-16T17:29:21.551Z,1.00
2018-12-16T17:31:49.968Z,1.00
2018-12-16T17:34:18.422Z,1.00
2018-12-16T17:36:46.833Z,1.00
2018-12-16T17:39:15.581Z,1.00
2018-12-16T17:41:44.748Z,1.00
2018-12-16T17:44:13.261Z,1.00
2018-12-16T17:46:41.845Z,1.00
2018-12-16T17:49:10.318Z,1.00
2018-12-16T17:51:38.934Z,1.00
2018-12-16T17:54:07.494Z,1.00
2018-12-16T17:56:37.135Z,1.00
2018-12-16T17:59:06.010Z,1.00
2018-12-16T18:01:34.605Z,1.00
2018-12-16T18:04:05.196Z,1.00
2018-12-16T18:06:33.799Z,1.00
2018-12-16T18:09:02.216Z,1.00
2018-12-16T18:11:30.792Z,1.00
2018-12-16T18:14:00.295Z,1.00
2018-12-16T18:16:28.789Z,1.00
2018-12-16T18:18:57.292Z,0.90
2018-12-16T18:21:25.722Z,0.90
2018-12-16T18:23:54.185Z,1.00
2018-12-16T18:26:22.771Z,1.00
2018-12-16T18:28:51.222Z,0.90
2018-12-16T18:31:19.663Z,0.90
2018-12-16T18:33:48.112Z,1.00
2018-12-16T18:36:17.221Z,1.00
2018-12-16T18:38:45.883Z,0.90
2018-12-16T18:41:14.413Z,0.90
2018-12-16T18:43:42.908Z,0.90
2018-12-16T18:46:11.385Z,0.90
2018-12-16T18:48:40.032Z,0.90
2018-12-16T18:51:08.678Z,0.90
2018-12-16T18:53:37.197Z,0.90
2018-12-16T18:56:05.761Z,0.90
2018-12-16T18:58:34.242Z,0.90
2018-12-16T19:01:02.764Z,0.90
2018-12-16T19:03:31.437Z,0.90
2018-12-16T19:06:00.009Z,0.90
2018-12-16T19:08:28.592Z,0.90
2018-12-16T19:10:57.043Z,0.90
2018-12-16T19:13:25.480Z,0.90
2018-12-16T19:15:53.920Z,0.80
2018-12-16T19:18:24.882Z,0.80
2018-12-16T19:20:54.029Z,0.80
2018-12-16T19:23:23.186Z,0.80
2018-12-16T19:25:52.590Z,0.80
2018-12-16T19:28:21.861Z,0.80
2018-12-16T19:30:51.277Z,0.80
2018-12-16T19:33:20.754Z,0.80
2018-12-16T19:35:49.971Z,0.80
2018-12-16T19:38:18.437Z,0.80
2018-12-16T19:40:47.483Z,0.80
2018-12-16T19:43:15.856Z,0.80
2018-12-16T19:45:44.270Z,0.80
2018-12-16T19:48:12.630Z,0.80
2018-12-16T19:50:41.133Z,0.70
2018-12-16T19:53:09.696Z,0.70
2018-12-16T19:55:38.412Z,0.70
2018-12-16T19:58:07.484Z,0.70
2018-12-16T20:00:35.998Z,0.70
2018-12-16T20:03:04.495Z,0.70
2018-12-16T20:05:38.191Z,0.70
2018-12-16T20:08:06.626Z,0.70
2018-12-16T20:10:35.147Z,0.70
2018-12-16T20:13:03.559Z,0.70
2018-12-16T20:15:32.084Z,0.70
2018-12-16T20:18:00.476Z,0.60
2018-12-16T20:20:28.890Z,0.70
2018-12-16T20:22:57.308Z,0.60
2018-12-16T20:25:25.731Z,0.60
2018-12-16T20:27:54.110Z,0.60
2018-12-16T20:30:22.474Z,0.60
2018-12-16T20:32:51.145Z,0.60
2018-12-16T20:35:20.240Z,0.60
2018-12-16T20:37:49.624Z,0.50
2018-12-16T20:40:18.093Z,0.50
2018-12-16T20:42:46.868Z,0.50
2018-12-16T20:45:15.429Z,0.50
2018-12-16T20:47:43.962Z,0.50
2018-12-16T20:50:12.679Z,0.50
2018-12-16T20:52:41.214Z,0.50
2018-12-16T20:55:09.798Z,0.50
2018-12-16T20:57:38.413Z,0.50
2018-12-16T21:00:09.044Z,0.50
2018-12-16T21:02:37.631Z,0.50
2018-12-16T21:05:06.608Z,0.40
2018-12-16T21:07:35.334Z,0.40
2018-12-16T21:10:04.665Z,0.40
2018-12-16T21:12:39.545Z,0.40
2018-12-16T21:15:13.750Z,0.40
2018-12-16T21:17:47.748Z,0.40
2018-12-16T21:20:16.292Z,0.40
2018-12-16T21:22:44.804Z,0.30
2018-12-16T21:25:13.301Z,0.30
2018-12-16T21:27:41.781Z,0.30
2018-12-16T21:30:10.614Z,0.20
2018-12-16T21:32:39.102Z,0.20
2018-12-16T21:35:08.081Z,0.20
2018-12-16T21:37:36.535Z,0.30
2018-12-16T21:40:05.955Z,0.20
2018-12-16T21:42:34.503Z,0.20
2018-12-16T21:45:03.174Z,0.20
2018-12-16T21:47:31.755Z,0.30
2018-12-16T21:50:00.567Z,0.30
2018-12-16T21:52:29.075Z,0.30
2018-12-16T21:54:57.813Z,0.30
2018-12-16T21:57:32.852Z,0.30
2018-12-16T21:59:56.882Z,0.30
2018-12-16T22:02:25.484Z,0.30
2018-12-16T22:04:54.047Z,0.30
2018-12-16T22:07:22.699Z,0.40
2018-12-16T22:09:51.250Z,0.40
2018-12-16T22:12:20.280Z,0.40
2018-12-16T22:14:48.737Z,0.40
2018-12-16T22:17:17.301Z,0.40
2018-12-16T22:19:45.780Z,0.40
2018-12-16T22:22:14.321Z,0.40
2018-12-16T22:24:42.774Z,0.40
2018-12-16T22:27:11.203Z,0.40
2018-12-16T22:29:39.696Z,0.40
2018-12-16T22:32:08.162Z,0.40
2018-12-16T22:34:37.188Z,0.40
2018-12-16T22:37:05.620Z,0.40
2018-12-16T22:39:34.114Z,0.40
2018-12-16T22:42:02.623Z,0.30
2018-12-16T22:44:31.088Z,0.30
2018-12-16T22:46:59.503Z,0.20
2018-12-16T22:49:28.965Z,0.20
2018-12-16T22:51:57.493Z,0.20
2018-12-16T22:54:26.087Z,0.20
2018-12-16T22:56:54.509Z,0.20
2018-12-16T22:59:22.877Z,0.30
2018-12-16T23:01:51.358Z,0.30
2018-12-16T23:04:19.741Z,0.30
2018-12-16T23:06:48.185Z,0.30
2018-12-16T23:09:16.606Z,0.30
2018-12-16T23:11:45.155Z,0.30
2018-12-16T23:14:13.644Z,0.30
2018-12-16T23:16:42.067Z,0.30
2018-12-16T23:19:10.442Z,0.40
2018-12-16T23:21:38.914Z,0.40
2018-12-16T23:24:07.282Z,0.40
2018-12-16T23:26:35.882Z,0.40
2018-12-16T23:29:04.275Z,0.40
2018-12-16T23:31:32.662Z,0.40
2018-12-16T23:34:01.160Z,0.40
2018-12-16T23:36:30.099Z,0.40
2018-12-16T23:38:58.453Z,0.40
2018-12-16T23:41:26.964Z,0.40
2018-12-16T23:43:55.306Z,0.40
2018-12-16T23:46:23.901Z,0.40
2018-12-16T23:48:52.523Z,0.40
2018-12-16T23:51:20.964Z,0.40
2018-12-16T23:53:49.420Z,0.40
2018-12-16T23:56:17.998Z,0.40
2018-12-16T23:58:46.431Z,0.40
